createdAt,value
2023-03-22T00:02:59.456Z,96786.78
2023-03-22T00:07:02.675Z,96791.13
2023-03-22T00:11:03.146Z,96787.38
2023-03-22T00:15:07.688Z,96779.91
2023-03-22T00:19:08.749Z,96763.94
2023-03-22T00:23:12.472Z,96775.63
2023-03-22T00:27:12.812Z,96771.84
2023-03-22T00:31:14.985Z,96768.13
2023-03-22T00:35:16.771Z,96762.56
2023-03-22T00:39:19.778Z,96755.56
2023-03-22T00:43:21.839Z,96766.72
2023-03-22T00:47:24.924Z,96768.03
2023-03-22T00:51:27.461Z,96760.59
2023-03-22T00:55:31.381Z,96763.34
2023-03-22T00:59:31.886Z,96747.91
2023-03-22T01:03:33.628Z,96747.81
2023-03-22T01:07:34.192Z,96739.72
2023-03-22T01:11:39.797Z,96744.88
2023-03-22T01:15:41.627Z,96747.59
2023-03-22T01:19:43.528Z,96742.13
2023-03-22T01:23:43.917Z,96743.22
2023-03-22T01:27:47.458Z,96741.97
2023-03-22T01:31:48.049Z,96737.88
2023-03-22T01:35:48.665Z,96736.03
2023-03-22T01:39:50.038Z,96724.22
2023-03-22T01:44:32.536Z,96717.47
2023-03-22T01:48:42.123Z,96721.09
2023-03-22T01:52:44.333Z,96712.50
2023-03-22T01:56:53.192Z,96712.53
2023-03-22T02:01:08.379Z,96707.78
2023-03-22T02:05:22.519Z,96705.88
2023-03-22T02:09:24.779Z,96710.34
2023-03-22T02:13:56.652Z,96714.97
2023-03-22T02:18:45.276Z,96715.84
2023-03-22T02:23:39.752Z,96710.59
2023-03-22T02:28:20.699Z,96703.50
2023-03-22T02:33:08.873Z,96705.50
2023-03-22T02:37:56.626Z,96706.91
2023-03-22T02:42:18.819Z,96699.44
2023-03-22T02:46:30.857Z,96700.00
2023-03-22T02:50:41.374Z,96698.00
2023-03-22T02:54:50.795Z,96699.88
2023-03-22T02:58:59.753Z,96703.44
2023-03-22T03:03:11.550Z,96701.84
2023-03-22T03:07:17.401Z,96701.75
2023-03-22T03:11:18.090Z,96691.03
2023-03-22T03:15:26.848Z,96693.38
2023-03-22T03:19:37.136Z,96687.28
2023-03-22T03:23:51.534Z,96692.22
2023-03-22T03:28:00.506Z,96684.38
2023-03-22T03:32:09.840Z,96689.59
2023-03-22T03:36:17.580Z,96683.72
2023-03-22T03:40:23.812Z,96679.44
2023-03-22T03:44:25.662Z,96658.38
2023-03-22T03:48:34.945Z,96681.94
2023-03-22T03:52:35.842Z,96688.06
2023-03-22T03:56:37.319Z,96689.56
2023-03-22T04:00:39.652Z,96698.78
2023-03-22T04:05:04.418Z,96695.75
2023-03-22T04:09:05.966Z,96704.63
2023-03-22T04:13:12.326Z,96696.00
2023-03-22T04:17:13.526Z,96699.88
2023-03-22T04:21:16.764Z,96712.28
2023-03-22T04:25:34.151Z,96704.06
2023-03-22T04:29:40.818Z,96708.00
2023-03-22T04:34:05.774Z,96699.50
2023-03-22T04:38:31.477Z,96706.38
2023-03-22T04:42:32.377Z,96706.47
2023-03-22T04:46:44.727Z,96708.84
2023-03-22T04:50:45.752Z,96705.34
2023-03-22T04:54:49.521Z,96705.91
2023-03-22T04:58:50.677Z,96689.63
2023-03-22T05:02:52.138Z,96698.97
2023-03-22T05:07:01.965Z,96697.25
2023-03-22T05:11:20.422Z,96707.28
2023-03-22T05:15:33.964Z,96703.75
2023-03-22T05:19:36.985Z,96710.50
2023-03-22T05:23:38.720Z,96674.59
2023-03-22T05:27:41.716Z,96699.94
2023-03-22T05:31:56.134Z,96709.19
2023-03-22T05:35:57.063Z,96696.56
2023-03-22T05:39:59.105Z,96710.78
2023-03-22T05:44:12.781Z,96714.31
2023-03-22T05:48:22.158Z,96708.84
2023-03-22T05:52:22.991Z,96714.28
2023-03-22T05:56:41.444Z,96717.41
2023-03-22T06:00:44.321Z,96718.94
2023-03-22T06:05:05.041Z,96705.69
2023-03-22T06:09:16.531Z,96702.22
2023-03-22T06:13:24.535Z,96698.81
2023-03-22T06:17:28.013Z,96690.91
2023-03-22T06:21:28.494Z,96696.91
2023-03-22T06:25:29.548Z,96691.88
2023-03-22T06:29:30.487Z,96698.63
2023-03-22T06:33:36.316Z,96703.50
2023-03-22T06:37:48.359Z,96701.06
2023-03-22T06:41:49.180Z,96706.59
2023-03-22T06:45:49.907Z,96707.97
2023-03-22T06:49:58.834Z,96701.31
2023-03-22T06:54:12.785Z,96706.00
2023-03-22T06:58:14.662Z,96698.94
2023-03-22T07:02:17.094Z,96705.53
2023-03-22T07:06:41.400Z,96699.16
2023-03-22T07:10:44.299Z,96704.31
2023-03-22T07:14:46.526Z,96693.16
2023-03-22T07:18:57.771Z,96699.13
2023-03-22T07:23:01.328Z,96687.25
2023-03-22T07:27:05.147Z,96689.44
2023-03-22T07:31:10.069Z,96689.19
2023-03-22T07:35:45.545Z,96682.78
2023-03-22T07:39:49.205Z,96690.84
2023-03-22T07:43:55.440Z,96689.53
2023-03-22T07:48:02.835Z,96685.97
2023-03-22T07:52:26.224Z,96668.00
2023-03-22T07:56:31.908Z,96691.66
2023-03-22T08:00:34.184Z,96685.91
2023-03-22T08:04:56.707Z,96692.50
2023-03-22T08:09:17.539Z,96689.34
2023-03-22T08:13:26.036Z,96685.31
2023-03-22T08:17:27.125Z,96681.47
2023-03-22T08:21:27.780Z,96683.53
2023-03-22T08:25:30.419Z,96684.44
2023-03-22T08:29:41.938Z,96676.69
2023-03-22T08:33:42.724Z,96673.19
2023-03-22T08:37:44.080Z,96667.47
2023-03-22T08:41:44.945Z,96660.78
2023-03-22T08:45:48.497Z,96656.88
2023-03-22T08:49:50.629Z,96644.53
2023-03-22T08:53:58.908Z,96643.16
2023-03-22T08:58:32.265Z,96654.06
2023-03-22T09:03:08.170Z,96642.28
2023-03-22T09:07:08.948Z,96647.81
2023-03-22T09:11:13.264Z,96631.78
2023-03-22T09:15:15.614Z,96630.16
2023-03-22T09:19:22.995Z,96625.94
2023-03-22T09:23:23.818Z,96635.09
2023-03-22T09:27:25.235Z,96634.06
2023-03-22T09:31:25.965Z,96633.44
2023-03-22T09:35:45.019Z,96634.22
2023-03-22T09:39:48.015Z,96630.50
2023-03-22T09:43:56.570Z,96613.75
2023-03-22T09:48:01.237Z,96618.09
2023-03-22T09:52:04.593Z,96612.38
2023-03-22T09:56:12.895Z,96609.09
2023-03-22T10:00:23.486Z,96601.00
2023-03-22T10:04:55.040Z,96616.00
2023-03-22T10:09:11.857Z,96602.00
2023-03-22T10:13:22.832Z,96605.28
2023-03-22T10:17:30.904Z,96605.03
2023-03-22T10:21:32.331Z,96608.66
2023-03-22T10:25:42.708Z,96602.50
2023-03-22T10:29:47.162Z,96590.38
2023-03-22T10:33:58.576Z,96584.38
2023-03-22T10:38:03.655Z,96572.03
2023-03-22T10:42:13.485Z,96571.69
2023-03-22T10:46:22.137Z,96571.72
2023-03-22T10:50:29.754Z,96569.69
2023-03-22T10:54:34.198Z,96574.69
2023-03-22T10:58:40.433Z,96561.91
2023-03-22T11:02:55.838Z,96573.78
2023-03-22T11:06:59.333Z,96546.66
2023-03-22T11:11:04.595Z,96567.09
2023-03-22T11:15:30.638Z,96552.78
2023-03-22T11:19:37.077Z,96550.72
2023-03-22T11:23:40.894Z,96541.63
2023-03-22T11:27:53.552Z,96534.19
2023-03-22T11:32:01.438Z,96535.56
2023-03-22T11:36:05.942Z,96528.63
2023-03-22T11:40:11.058Z,96516.91
2023-03-22T11:44:16.833Z,96535.59
2023-03-22T11:48:27.407Z,96517.66
2023-03-22T11:52:31.005Z,96501.34
2023-03-22T11:56:34.762Z,96494.44
2023-03-22T12:00:40.919Z,96481.88
2023-03-22T12:04:49.385Z,96494.09
2023-03-22T12:08:56.780Z,96499.38
2023-03-22T12:13:04.137Z,96478.59
2023-03-22T12:17:11.437Z,96482.22
2023-03-22T12:21:15.855Z,96496.41
2023-03-22T12:25:20.593Z,96476.78
2023-03-22T12:29:25.189Z,96471.75
2023-03-22T12:33:31.147Z,96468.44
2023-03-22T12:37:38.988Z,96460.78
2023-03-22T12:41:43.291Z,96464.69
2023-03-22T12:45:50.150Z,96454.91
2023-03-22T12:50:00.191Z,96467.75
2023-03-22T12:54:05.664Z,96463.13
2023-03-22T12:58:10.639Z,96462.03
2023-03-22T13:02:24.002Z,96456.63
2023-03-22T13:06:58.417Z,96466.91
2023-03-22T13:11:26.922Z,96448.63
2023-03-22T13:15:42.213Z,96432.47
2023-03-22T13:19:55.244Z,96433.72
2023-03-22T13:24:22.114Z,96438.03
2023-03-22T13:28:37.231Z,96436.75
2023-03-22T13:32:39.847Z,96431.06
2023-03-22T13:36:40.896Z,96435.63
2023-03-22T13:40:53.290Z,96433.56
2023-03-22T13:45:04.163Z,96438.66
2023-03-22T13:49:36.237Z,96436.31
2023-03-22T13:53:38.884Z,96434.41
2023-03-22T13:57:54.383Z,96426.59
2023-03-22T14:02:08.054Z,96421.97
2023-03-22T14:06:20.558Z,96413.66
2023-03-22T14:10:30.412Z,96404.19
2023-03-22T14:14:38.489Z,96416.97
2023-03-22T14:18:49.906Z,96404.59
2023-03-22T14:55:43.678Z,96401.50
2023-03-22T14:59:50.214Z,96401.63
2023-03-22T15:03:59.044Z,96410.53
2023-03-22T15:08:13.912Z,96400.44
2023-03-22T15:12:16.085Z,96397.09
2023-03-22T15:16:22.351Z,96389.53
2023-03-22T15:20:31.406Z,96391.44
2023-03-22T15:24:40.502Z,96388.78
2023-03-22T15:28:49.422Z,96396.53
2023-03-22T15:32:50.631Z,96383.19
2023-03-22T15:36:56.210Z,96382.59
2023-03-22T15:41:00.206Z,96372.53
2023-03-22T15:45:05.172Z,96373.22
2023-03-22T15:49:23.437Z,96375.03
2023-03-22T15:53:34.232Z,96372.44
2023-03-22T15:57:52.888Z,96368.34
2023-03-22T16:01:55.352Z,96359.50
2023-03-22T16:05:57.149Z,96373.47
2023-03-22T16:09:59.410Z,96369.66
2023-03-22T16:14:07.216Z,96375.50
2023-03-22T16:18:13.257Z,96371.25
2023-03-22T16:22:16.870Z,96366.19
2023-03-22T16:26:20.350Z,96373.56
2023-03-22T16:30:24.127Z,96370.06
2023-03-22T16:34:24.533Z,96373.19
2023-03-22T16:38:28.391Z,96378.78
2023-03-22T16:42:29.648Z,96370.09
2023-03-22T16:46:34.245Z,96371.06
2023-03-22T16:50:38.323Z,96381.13
2023-03-22T16:54:40.646Z,96370.38
2023-03-22T16:58:41.332Z,96379.53
2023-03-22T17:02:44.823Z,96372.94
2023-03-22T17:06:46.327Z,96372.03
2023-03-22T17:10:48.162Z,96377.59
2023-03-22T17:14:51.572Z,96384.13
2023-03-22T17:18:57.564Z,96380.72
2023-03-22T17:23:01.942Z,96385.72
2023-03-22T17:27:08.596Z,96382.06
2023-03-22T17:31:14.334Z,96379.47
2023-03-22T17:35:24.022Z,96393.63
2023-03-22T17:39:51.372Z,96395.16
2023-03-22T17:43:49.322Z,96404.16
2023-03-22T17:47:51.309Z,96400.13
2023-03-22T17:51:56.127Z,96411.94
2023-03-22T17:56:25.839Z,96411.66
2023-03-22T18:00:26.113Z,96418.31
2023-03-22T18:04:28.096Z,96424.84
2023-03-22T18:08:33.226Z,96423.88
2023-03-22T18:12:33.876Z,96434.06
2023-03-22T18:16:53.304Z,96431.91
2023-03-22T18:24:58.684Z,96447.44
2023-03-22T18:29:00.153Z,96439.28
2023-03-22T18:33:05.954Z,96433.13
2023-03-22T18:37:08.605Z,96437.25
2023-03-22T18:41:37.575Z,96432.50
2023-03-22T18:49:57.627Z,96430.09
2023-03-22T18:53:58.109Z,96430.44
2023-03-22T18:58:02.674Z,96423.53
2023-03-22T19:02:11.275Z,96433.94
2023-03-22T19:06:23.301Z,96427.00
2023-03-22T19:10:27.945Z,96428.59
2023-03-22T19:18:42.161Z,96436.88
2023-03-22T19:22:42.629Z,96431.03
2023-03-22T19:26:55.664Z,96430.44
2023-03-22T19:31:05.158Z,96430.41
2023-03-22T19:35:06.946Z,96433.84
2023-03-22T19:39:11.546Z,96393.75
2023-03-22T19:43:17.085Z,96427.66
2023-03-22T19:47:22.178Z,96431.88
2023-03-22T19:51:22.796Z,96428.69
2023-03-22T19:55:23.509Z,96427.59
2023-03-22T19:59:25.818Z,96431.28
2023-03-22T20:03:30.287Z,96432.22
2023-03-22T20:07:31.346Z,96424.75
2023-03-22T20:11:43.250Z,96431.66
2023-03-22T20:15:44.330Z,96426.88
2023-03-22T20:19:47.897Z,96394.66
2023-03-22T20:23:48.345Z,96426.97
2023-03-22T20:27:49.275Z,96439.59
2023-03-22T20:31:49.991Z,96441.66
2023-03-22T20:35:55.673Z,96439.59
2023-03-22T20:39:56.122Z,96444.28
2023-03-22T20:44:02.717Z,96436.75
2023-03-22T20:48:07.353Z,96449.53
2023-03-22T20:52:12.404Z,96453.59
2023-03-22T20:56:16.640Z,96434.59
2023-03-22T21:00:24.548Z,96440.03
2023-03-22T21:04:29.246Z,96439.41
2023-03-22T21:08:39.757Z,96446.28
2023-03-22T21:12:44.696Z,96450.00
2023-03-22T21:16:47.919Z,96432.66
2023-03-22T21:20:49.283Z,96435.38
2023-03-22T21:24:52.474Z,96428.22
2023-03-22T21:28:52.836Z,96426.66
2023-03-22T21:32:54.075Z,96433.91
2023-03-22T21:36:55.239Z,96432.38
2023-03-22T21:41:02.050Z,96434.63
2023-03-22T21:45:03.990Z,96434.56
2023-03-22T21:49:05.552Z,96428.88
2023-03-22T21:53:06.425Z,96418.75
2023-03-22T21:57:10.321Z,96438.47
2023-03-22T22:01:11.225Z,96431.59
2023-03-22T22:05:13.816Z,96421.63
2023-03-22T22:09:15.014Z,96418.25
2023-03-22T22:13:18.559Z,96424.97
2023-03-22T22:17:19.326Z,96418.41
2023-03-22T22:21:22.962Z,96417.81
2023-03-22T22:25:24.043Z,96418.91
2023-03-22T22:29:27.978Z,96406.00
2023-03-22T22:33:29.145Z,96412.84
2023-03-22T22:37:29.518Z,96413.75
2023-03-22T22:41:31.991Z,96418.34
2023-03-22T22:45:36.689Z,96409.63
2023-03-22T22:49:37.370Z,96406.38
2023-03-22T22:53:39.027Z,96408.00
2023-03-22T22:57:39.998Z,96415.84
2023-03-22T23:01:46.173Z,96412.63
2023-03-22T23:05:50.521Z,96417.88
2023-03-22T23:09:55.673Z,96417.75
2023-03-22T23:14:03.128Z,96418.75
2023-03-22T23:18:13.132Z,96414.50
2023-03-22T23:22:15.000Z,96411.34
2023-03-22T23:26:16.852Z,96414.19
2023-03-22T23:30:18.591Z,96416.81
2023-03-22T23:34:22.538Z,96418.13
2023-03-22T23:38:23.250Z,96384.66
2023-03-22T23:42:23.964Z,96410.97
2023-03-22T23:46:26.345Z,96405.47
2023-03-22T23:50:29.433Z,96410.72
2023-03-22T23:54:29.923Z,96398.81
2023-03-22T23:58:31.403Z,96400.47
